createdAt,value
2022-08-17T00:01:51.816Z,20.23
2022-08-17T00:04:22.733Z,19.95
2022-08-17T00:06:53.504Z,21.30
2022-08-17T00:09:23.234Z,20.77
2022-08-17T00:12:41.081Z,22.75
2022-08-17T00:14:45.385Z,22.60
2022-08-17T00:17:15.137Z,23.60
2022-08-17T00:19:44.850Z,21.20
2022-08-17T00:22:30.907Z,22.95
2022-08-17T00:25:04.400Z,29.30
2022-08-17T00:27:37.063Z,24.77
2022-08-17T00:30:09.619Z,22.73
2022-08-17T00:33:15.776Z,23.05
2022-08-17T00:35:31.042Z,20.77
2022-08-17T00:38:00.753Z,22.77
2022-08-17T00:40:44.475Z,23.70
2022-08-17T00:43:23.974Z,23.30
2022-08-17T00:45:53.739Z,23.52
2022-08-17T00:48:30.283Z,26.42
2022-08-17T00:51:05.273Z,26.33
2022-08-17T00:53:38.257Z,23.63
2022-08-17T00:56:08.947Z,25.95
2022-08-17T00:58:41.691Z,24.85
2022-08-17T01:01:21.446Z,26.50
2022-08-17T01:03:53.642Z,22.73
2022-08-17T01:06:28.576Z,24.60
2022-08-17T01:08:59.905Z,24.45
2022-08-17T01:11:30.479Z,24.88
2022-08-17T01:14:02.894Z,23.25
2022-08-17T01:16:34.725Z,24.67
2022-08-17T01:19:08.060Z,21.13
2022-08-17T01:21:47.107Z,22.30
2022-08-17T01:24:20.100Z,23.13
2022-08-17T01:26:50.557Z,22.10
2022-08-17T01:29:21.650Z,22.65
2022-08-17T01:31:55.343Z,25.80
2022-08-17T01:34:25.249Z,30.30
2022-08-17T01:37:12.568Z,29.23
2022-08-17T01:39:48.599Z,25.75
2022-08-17T01:42:23.858Z,26.98
2022-08-17T01:44:59.020Z,35.25
2022-08-17T01:47:29.907Z,26.65
2022-08-17T01:50:00.911Z,28.98
2022-08-17T01:52:30.636Z,28.60
2022-08-17T01:55:03.416Z,26.77
2022-08-17T01:57:33.157Z,25.52
2022-08-17T02:00:03.002Z,25.90
2022-08-17T02:02:33.261Z,29.85
2022-08-17T02:05:03.031Z,25.63
2022-08-17T02:07:32.789Z,27.55
2022-08-17T02:10:25.677Z,26.85
2022-08-17T02:13:04.527Z,27.15
2022-08-17T02:15:35.264Z,25.90
2022-08-17T02:18:05.718Z,23.08
2022-08-17T02:20:42.627Z,21.80
2022-08-17T02:23:14.720Z,23.02
2022-08-17T02:25:50.580Z,23.30
2022-08-17T02:28:21.439Z,18.67
2022-08-17T02:31:02.294Z,16.98
2022-08-17T02:33:43.012Z,14.50
2022-08-17T02:36:14.686Z,15.32
2022-08-17T02:38:45.301Z,14.10
2022-08-17T02:41:17.693Z,15.02
2022-08-17T02:43:47.466Z,19.77
2022-08-17T02:46:17.176Z,18.45
2022-08-17T02:48:47.132Z,13.50
2022-08-17T02:51:16.898Z,11.48
2022-08-17T02:53:46.886Z,15.02
2022-08-17T02:56:19.394Z,15.02
2022-08-17T02:58:49.321Z,15.77
2022-08-17T03:01:19.324Z,16.60
2022-08-17T03:03:49.284Z,18.48
2022-08-17T03:06:19.542Z,17.92
2022-08-17T03:08:49.260Z,18.60
2022-08-17T03:11:22.129Z,17.25
2022-08-17T03:13:51.910Z,17.63
2022-08-17T03:16:21.625Z,24.02
2022-08-17T03:18:51.426Z,25.33
2022-08-17T03:21:21.127Z,25.00
2022-08-17T03:23:54.341Z,22.15
2022-08-17T03:26:29.643Z,21.90
2022-08-17T03:28:59.682Z,33.28
2022-08-17T03:31:29.397Z,27.55
2022-08-17T03:33:59.261Z,24.23
2022-08-17T03:36:29.677Z,21.30
2022-08-17T03:39:01.049Z,22.33
2022-08-17T03:41:33.448Z,19.10
2022-08-17T03:44:03.186Z,24.88
2022-08-17T03:46:45.352Z,28.02
2022-08-17T03:49:27.501Z,25.90
2022-08-17T03:52:11.147Z,28.60
2022-08-17T03:54:53.376Z,26.42
2022-08-17T03:57:26.210Z,29.00
2022-08-17T03:59:56.582Z,27.73
2022-08-17T04:02:28.326Z,30.08
2022-08-17T04:04:58.180Z,37.40
2022-08-17T04:07:31.101Z,36.60
2022-08-17T04:10:00.967Z,38.60
2022-08-17T04:12:47.138Z,25.75
2022-08-17T04:15:18.538Z,26.52
2022-08-17T04:17:48.408Z,25.40
2022-08-17T04:20:20.524Z,23.40
2022-08-17T04:23:02.275Z,23.67
2022-08-17T04:25:33.716Z,23.85
2022-08-17T04:28:15.759Z,23.48
2022-08-17T04:30:48.860Z,23.50
2022-08-17T04:33:21.975Z,20.95
2022-08-17T04:35:54.065Z,20.98
2022-08-17T04:38:25.704Z,19.52
2022-08-17T04:41:08.631Z,20.20
2022-08-17T04:43:43.022Z,20.45
2022-08-17T04:46:15.585Z,22.10
2022-08-17T04:48:47.628Z,26.48
2022-08-17T04:51:22.258Z,23.27
2022-08-17T04:53:55.179Z,25.02
2022-08-17T04:56:26.159Z,29.70
2022-08-17T04:59:04.463Z,34.08
2022-08-17T05:01:36.539Z,29.42
2022-08-17T05:04:21.331Z,23.25
2022-08-17T05:06:58.839Z,22.55
2022-08-17T05:09:29.171Z,24.25
2022-08-17T05:11:58.860Z,23.33
2022-08-17T05:14:33.541Z,21.83
2022-08-17T05:17:10.620Z,24.20
2022-08-17T05:19:41.771Z,26.88
2022-08-17T05:22:11.562Z,30.10
2022-08-17T05:24:43.648Z,30.60
2022-08-17T05:27:25.330Z,33.20
2022-08-17T05:30:02.176Z,29.85
2022-08-17T05:32:38.457Z,26.95
2022-08-17T05:35:11.192Z,27.90
2022-08-17T05:37:40.929Z,30.80
2022-08-17T05:40:11.839Z,30.50
2022-08-17T05:42:41.585Z,32.50
2022-08-17T05:45:15.847Z,30.95
2022-08-17T05:47:53.897Z,41.00
2022-08-17T05:50:29.949Z,36.58
2022-08-17T05:53:06.095Z,37.33
2022-08-17T05:55:44.856Z,39.08
2022-08-17T05:58:26.507Z,41.00
2022-08-17T06:01:06.269Z,43.72
2022-08-17T06:03:46.224Z,42.03
2022-08-17T06:06:31.248Z,37.20
2022-08-17T06:09:24.802Z,34.78
2022-08-17T06:12:03.677Z,39.88
2022-08-17T06:14:47.074Z,46.22
2022-08-17T06:17:25.226Z,38.05
2022-08-17T06:19:59.812Z,40.13
2022-08-17T06:22:34.804Z,43.00
2022-08-17T06:25:10.321Z,44.03
2022-08-17T06:27:45.138Z,38.53
2022-08-17T06:30:18.161Z,31.20
2022-08-17T06:32:52.916Z,31.02
2022-08-17T06:35:32.114Z,32.92
2022-08-17T06:38:15.104Z,32.30
2022-08-17T06:41:12.541Z,30.75
2022-08-17T06:43:56.850Z,28.50
2022-08-17T06:46:37.232Z,27.00
2022-08-17T06:49:22.128Z,32.17
2022-08-17T06:51:57.779Z,31.83
2022-08-17T06:54:36.967Z,33.20
2022-08-17T06:57:15.450Z,36.15
2022-08-17T06:59:55.790Z,29.95
2022-08-17T07:02:52.051Z,28.83
2022-08-17T07:05:28.400Z,29.08
2022-08-17T07:08:05.762Z,36.15
2022-08-17T07:10:42.740Z,45.38
2022-08-17T07:13:25.666Z,43.53
2022-08-17T07:16:00.259Z,34.55
2022-08-17T07:18:33.320Z,39.75
2022-08-17T07:21:17.519Z,33.15
2022-08-17T07:24:02.884Z,27.98
2022-08-17T07:26:32.692Z,30.52
2022-08-17T07:29:04.520Z,28.33
2022-08-17T07:31:35.155Z,27.70
2022-08-17T07:34:14.667Z,27.02
2022-08-17T07:36:47.127Z,29.67
2022-08-17T07:39:30.494Z,26.67
2022-08-17T07:42:05.927Z,27.42
2022-08-17T07:44:48.675Z,28.20
2022-08-17T07:47:32.203Z,44.30
2022-08-17T07:50:01.958Z,34.08
2022-08-17T07:52:51.049Z,30.92
2022-08-17T07:55:35.115Z,33.15
2022-08-17T07:58:04.886Z,26.75
2022-08-17T08:00:34.816Z,31.63
2022-08-17T08:03:16.731Z,41.83
2022-08-17T08:05:56.562Z,40.53
2022-08-17T08:08:36.093Z,41.80
2022-08-17T08:11:11.871Z,40.13
2022-08-17T08:13:45.867Z,42.10
2022-08-17T08:16:24.559Z,38.83
2022-08-17T08:18:58.259Z,40.05
2022-08-17T08:21:49.283Z,42.47
2022-08-17T08:24:36.817Z,37.83
2022-08-17T08:27:13.944Z,38.75
2022-08-17T08:29:55.598Z,40.65
2022-08-17T08:32:57.301Z,37.60
2022-08-17T08:35:34.503Z,38.00
2022-08-17T08:38:13.672Z,35.35
2022-08-17T08:40:59.597Z,38.00
2022-08-17T08:43:38.547Z,32.13
2022-08-17T08:46:24.581Z,35.75
2022-08-17T08:49:45.125Z,38.47
2022-08-17T08:52:24.913Z,34.63
2022-08-17T08:55:00.675Z,34.50
2022-08-17T08:57:36.851Z,35.22
2022-08-17T09:00:15.827Z,35.70
2022-08-17T09:03:19.262Z,36.42
2022-08-17T09:06:32.483Z,38.20
2022-08-17T09:09:10.274Z,37.45
2022-08-17T09:12:02.518Z,35.83
2022-08-17T09:14:47.093Z,35.50
2022-08-17T09:17:22.068Z,33.10
2022-08-17T09:19:57.471Z,38.70
2022-08-17T09:22:33.426Z,31.65
2022-08-17T09:25:11.895Z,27.70
2022-08-17T09:27:53.659Z,26.70
2022-08-17T09:30:26.790Z,24.08
2022-08-17T09:33:01.930Z,25.13
2022-08-17T09:35:37.580Z,23.80
2022-08-17T09:38:21.501Z,28.90
2022-08-17T09:40:55.724Z,31.75
2022-08-17T09:43:33.563Z,38.83
2022-08-17T09:46:14.488Z,42.15
2022-08-17T09:48:50.561Z,45.75
2022-08-17T09:51:27.495Z,42.15
2022-08-17T09:54:14.783Z,40.25
2022-08-17T09:57:25.709Z,35.67
2022-08-17T10:00:01.223Z,33.83
2022-08-17T10:03:00.985Z,29.67
2022-08-17T10:05:40.089Z,33.45
2022-08-17T10:08:22.953Z,28.90
2022-08-17T10:11:08.893Z,27.40
2022-08-17T10:13:53.228Z,24.70
2022-08-17T10:16:32.589Z,23.40
2022-08-17T10:19:17.444Z,25.52
2022-08-17T10:22:14.962Z,23.85
2022-08-17T10:25:21.508Z,21.73
2022-08-17T10:27:57.795Z,21.92
2022-08-17T10:30:30.987Z,23.52
2022-08-17T10:33:03.997Z,24.95
2022-08-17T10:35:41.507Z,22.15
2022-08-17T10:38:36.614Z,23.83
2022-08-17T10:41:22.409Z,26.00
2022-08-17T10:44:39.723Z,27.15
2022-08-17T10:47:06.340Z,26.83
2022-08-17T10:49:37.181Z,28.02
2022-08-17T10:52:42.403Z,30.25
2022-08-17T10:55:20.528Z,28.33
2022-08-17T10:57:54.989Z,24.40
2022-08-17T11:01:04.150Z,26.63
2022-08-17T11:03:35.066Z,25.98
2022-08-17T11:06:18.144Z,24.95
2022-08-17T11:09:08.881Z,21.95
2022-08-17T11:12:29.182Z,22.75
2022-08-17T11:15:21.089Z,22.88
2022-08-17T11:18:32.469Z,21.40
2022-08-17T11:21:24.792Z,22.73
2022-08-17T11:24:09.757Z,22.95
2022-08-17T11:26:46.370Z,21.75
2022-08-17T11:29:24.924Z,21.58
2022-08-17T11:32:13.142Z,21.85
2022-08-17T11:34:45.743Z,22.88
2022-08-17T11:37:40.350Z,23.15
2022-08-17T11:40:41.334Z,23.10
2022-08-17T11:43:25.791Z,22.95
2022-08-17T11:46:07.028Z,25.15
2022-08-17T11:49:01.514Z,24.67
2022-08-17T11:52:01.427Z,21.75
2022-08-17T11:54:47.406Z,19.38
2022-08-17T11:57:47.369Z,19.33
2022-08-17T12:00:46.765Z,22.48
2022-08-17T12:03:55.352Z,20.02
2022-08-17T12:06:38.282Z,19.73
2022-08-17T12:09:13.956Z,17.65
2022-08-17T12:11:56.248Z,17.38
2022-08-17T12:15:08.873Z,18.27
2022-08-17T12:17:40.166Z,16.70
2022-08-17T12:20:17.810Z,15.13
2022-08-17T12:23:01.309Z,17.83
2022-08-17T12:25:39.177Z,16.92
2022-08-17T12:28:23.054Z,15.55
2022-08-17T12:30:54.789Z,16.92
2022-08-17T12:33:28.886Z,14.90
2022-08-17T12:36:03.099Z,14.85
2022-08-17T12:38:38.466Z,16.48
2022-08-17T12:41:23.486Z,15.75
2022-08-17T12:44:02.269Z,14.52
2022-08-17T12:46:36.205Z,16.20
2022-08-17T12:49:23.097Z,15.52
2022-08-17T12:51:56.677Z,15.30
2022-08-17T12:54:43.564Z,14.80
2022-08-17T12:57:18.480Z,15.85
2022-08-17T12:59:51.905Z,15.27
2022-08-17T13:02:44.313Z,13.65
2022-08-17T13:05:31.024Z,14.85
2022-08-17T13:08:04.607Z,15.63
2022-08-17T13:10:39.296Z,14.23
2022-08-17T13:13:22.931Z,12.57
2022-08-17T13:15:57.428Z,14.10
2022-08-17T13:18:48.119Z,13.13
2022-08-17T13:21:30.725Z,13.45
2022-08-17T13:24:02.865Z,12.93
2022-08-17T13:26:38.226Z,14.07
2022-08-17T13:29:09.774Z,13.90
2022-08-17T13:31:52.832Z,13.57
2022-08-17T13:34:48.970Z,12.23
2022-08-17T13:37:35.364Z,12.73
2022-08-17T13:40:38.546Z,13.50
2022-08-17T13:43:11.418Z,14.20
2022-08-17T13:45:50.712Z,13.82
2022-08-17T13:48:30.249Z,13.27
2022-08-17T13:51:17.288Z,12.63
2022-08-17T13:53:57.980Z,12.88
2022-08-17T13:56:37.394Z,11.35
2022-08-17T13:59:15.004Z,12.15
2022-08-17T14:01:53.413Z,11.05
2022-08-17T14:04:25.840Z,10.45
2022-08-17T14:06:58.468Z,10.68
2022-08-17T14:09:36.803Z,11.60
2022-08-17T14:12:09.764Z,11.55
2022-08-17T14:14:43.139Z,12.40
2022-08-17T14:17:13.486Z,11.35
2022-08-17T14:19:43.265Z,14.45
2022-08-17T14:22:23.791Z,12.02
2022-08-17T14:24:54.293Z,13.88
2022-08-17T14:27:28.198Z,11.30
2022-08-17T14:30:00.870Z,12.27
2022-08-17T14:32:33.119Z,13.07
2022-08-17T14:35:03.876Z,11.15
2022-08-17T14:37:34.615Z,13.75
2022-08-17T14:40:08.191Z,13.48
2022-08-17T14:42:41.836Z,13.65
2022-08-17T14:45:31.812Z,11.50
2022-08-17T14:48:04.334Z,12.43
2022-08-17T14:50:35.290Z,11.73
2022-08-17T14:53:05.970Z,12.30
2022-08-17T14:55:36.936Z,11.25
2022-08-17T14:58:07.077Z,12.80
2022-08-17T15:00:41.008Z,10.75
2022-08-17T15:03:11.620Z,10.68
2022-08-17T15:05:44.234Z,9.93
2022-08-17T15:08:14.713Z,12.13
2022-08-17T15:10:44.963Z,11.27
2022-08-17T15:13:20.573Z,10.52
2022-08-17T15:15:56.343Z,8.85
2022-08-17T15:18:26.186Z,14.90
2022-08-17T15:20:56.353Z,10.00
2022-08-17T15:23:28.761Z,12.23
2022-08-17T15:25:58.482Z,9.50
2022-08-17T15:28:28.234Z,11.63
2022-08-17T15:31:00.615Z,9.82
2022-08-17T15:33:32.067Z,9.95
2022-08-17T15:36:03.979Z,12.80
2022-08-17T15:38:35.425Z,11.75
2022-08-17T15:41:06.496Z,11.32
2022-08-17T15:43:36.914Z,13.95
2022-08-17T15:46:12.454Z,11.63
2022-08-17T15:48:44.804Z,10.57
2022-08-17T15:51:16.753Z,11.73
2022-08-17T15:53:49.464Z,10.52
2022-08-17T15:56:19.969Z,9.65
2022-08-17T15:58:51.215Z,10.25
2022-08-17T16:03:01.250Z,10.73
2022-08-17T16:04:29.884Z,10.82
2022-08-17T16:07:01.108Z,10.05
2022-08-17T16:09:31.085Z,10.45
2022-08-17T16:12:00.935Z,13.23
2022-08-17T16:14:33.567Z,10.88
2022-08-17T16:17:38.365Z,10.70
2022-08-17T16:19:59.854Z,10.30
2022-08-17T16:22:35.256Z,13.40
2022-08-17T16:25:07.778Z,12.65
2022-08-17T16:27:37.761Z,12.20
2022-08-17T16:30:10.504Z,12.32
2022-08-17T16:32:45.395Z,11.77
2022-08-17T16:35:17.113Z,13.18
2022-08-17T16:37:47.700Z,11.52
2022-08-17T16:40:19.105Z,10.40
2022-08-17T16:42:51.591Z,10.82
2022-08-17T16:45:23.833Z,12.63
2022-08-17T16:47:59.267Z,11.57
2022-08-17T16:50:29.049Z,10.40
2022-08-17T16:53:06.658Z,10.50
2022-08-17T16:55:37.694Z,12.57
2022-08-17T16:58:09.033Z,11.20
2022-08-17T17:00:39.472Z,9.88
2022-08-17T17:03:19.337Z,11.45
2022-08-17T17:06:03.570Z,8.98
2022-08-17T17:08:43.678Z,13.43
2022-08-17T17:11:18.312Z,13.00
2022-08-17T17:13:54.692Z,14.55
2022-08-17T17:16:34.740Z,12.57
2022-08-17T17:19:13.452Z,12.57
2022-08-17T17:21:49.515Z,12.93
2022-08-17T17:24:28.846Z,10.57
2022-08-17T17:27:13.046Z,10.93
2022-08-17T17:29:57.338Z,11.63
2022-08-17T17:32:38.742Z,13.15
2022-08-17T17:35:17.762Z,15.73
2022-08-17T17:37:49.899Z,13.02
2022-08-17T17:40:24.752Z,13.40
2022-08-17T17:42:56.484Z,15.15
2022-08-17T17:45:31.319Z,16.67
2022-08-17T17:48:01.086Z,13.73
2022-08-17T17:50:39.508Z,17.33
2022-08-17T17:53:12.504Z,17.88
2022-08-17T17:55:54.486Z,21.55
2022-08-17T17:58:39.355Z,26.77
2022-08-17T18:01:34.484Z,29.02
2022-08-17T18:04:23.394Z,25.13
2022-08-17T18:07:10.118Z,16.80
2022-08-17T18:10:01.415Z,14.10
2022-08-17T18:12:38.765Z,20.80
2022-08-17T18:15:29.588Z,19.98
2022-08-17T18:18:05.698Z,19.67
2022-08-17T18:20:53.146Z,18.88
2022-08-17T18:23:28.632Z,17.98
2022-08-17T18:26:01.408Z,17.83
2022-08-17T18:28:33.427Z,21.27
2022-08-17T18:31:12.630Z,22.90
2022-08-17T18:33:44.657Z,23.15
2022-08-17T18:36:15.585Z,24.73
2022-08-17T18:38:47.962Z,21.00
2022-08-17T18:41:25.981Z,27.73
2022-08-17T18:44:04.902Z,23.23
2022-08-17T18:46:38.365Z,27.08
2022-08-17T18:49:10.955Z,26.38
2022-08-17T18:51:43.670Z,25.45
2022-08-17T18:54:26.656Z,22.75
2022-08-17T18:56:59.070Z,18.10
2022-08-17T18:59:37.222Z,18.27
2022-08-17T19:02:40.368Z,15.93
2022-08-17T19:05:29.931Z,14.10
2022-08-17T19:08:20.521Z,15.35
2022-08-17T19:10:56.954Z,15.27
2022-08-17T19:13:34.367Z,19.65
2022-08-17T19:16:14.974Z,15.20
2022-08-17T19:18:52.146Z,13.85
2022-08-17T19:21:26.835Z,18.55
2022-08-17T19:24:02.090Z,20.15
2022-08-17T19:26:51.266Z,19.15
2022-08-17T19:29:29.309Z,18.40
2022-08-17T19:32:00.169Z,15.75
2022-08-17T19:34:34.592Z,20.30
2022-08-17T19:37:23.353Z,16.00
2022-08-17T19:40:02.520Z,26.33
2022-08-17T19:42:47.674Z,23.58
2022-08-17T19:45:32.956Z,23.17
2022-08-17T19:48:16.679Z,21.55
2022-08-17T19:50:54.194Z,17.50
2022-08-17T19:54:01.532Z,20.60
2022-08-17T19:56:32.646Z,27.23
2022-08-17T19:59:14.667Z,22.92
2022-08-17T20:01:50.666Z,19.05
2022-08-17T20:04:35.041Z,19.73
2022-08-17T20:07:17.545Z,16.90
2022-08-17T20:09:53.011Z,27.90
2022-08-17T20:12:26.283Z,21.08
2022-08-17T20:15:02.950Z,18.17
2022-08-17T20:17:35.220Z,14.98
2022-08-17T20:20:29.767Z,21.17
2022-08-17T20:23:05.281Z,14.05
2022-08-17T20:25:45.124Z,15.23
2022-08-17T20:28:24.687Z,15.18
2022-08-17T20:30:57.393Z,15.55
2022-08-17T20:33:30.001Z,12.65
2022-08-17T20:36:06.313Z,17.60
2022-08-17T20:38:45.316Z,20.25
2022-08-17T20:41:20.947Z,14.82
2022-08-17T20:44:06.824Z,18.30
2022-08-17T20:46:59.788Z,17.73
2022-08-17T20:49:38.228Z,20.75
2022-08-17T20:52:11.130Z,21.67
2022-08-17T20:54:49.503Z,15.77
2022-08-17T20:57:49.070Z,14.02
2022-08-17T21:00:44.897Z,13.55
2022-08-17T21:03:50.631Z,15.40
2022-08-17T21:06:27.498Z,13.43
2022-08-17T21:09:01.074Z,12.13
2022-08-17T21:12:04.063Z,15.65
2022-08-17T21:14:43.780Z,14.70
2022-08-17T21:17:42.055Z,17.67
2022-08-17T21:20:26.581Z,15.73
2022-08-17T21:23:13.817Z,17.48
2022-08-17T21:26:00.433Z,8.43
2022-08-17T21:29:00.840Z,12.57
2022-08-17T21:31:34.893Z,17.15
2022-08-17T21:34:30.654Z,15.75
2022-08-17T21:37:34.930Z,15.65
2022-08-17T21:40:26.270Z,11.60
2022-08-17T21:42:58.775Z,12.73
2022-08-17T21:45:32.028Z,13.18
2022-08-17T21:48:16.061Z,16.70
2022-08-17T21:50:50.026Z,15.38
2022-08-17T21:53:32.735Z,14.35
2022-08-17T21:56:05.736Z,12.80
2022-08-17T21:58:40.303Z,13.60
2022-08-17T22:01:25.390Z,11.52
2022-08-17T22:04:03.361Z,9.30
2022-08-17T22:06:38.227Z,13.38
2022-08-17T22:09:15.346Z,12.57
2022-08-17T22:12:02.584Z,12.27
2022-08-17T22:14:52.776Z,8.85
2022-08-17T22:17:27.752Z,10.18
2022-08-17T22:20:01.514Z,17.38
2022-08-17T22:22:56.225Z,13.48
2022-08-17T22:25:25.698Z,13.48
2022-08-17T22:28:00.452Z,16.15
2022-08-17T22:30:36.245Z,16.98
2022-08-17T22:33:39.197Z,10.80
2022-08-17T22:36:29.102Z,11.25
2022-08-17T22:39:01.023Z,12.50
2022-08-17T22:41:45.818Z,14.85
2022-08-17T22:44:25.344Z,9.88
2022-08-17T22:47:02.278Z,20.05
2022-08-17T22:49:38.662Z,13.02
2022-08-17T22:52:56.715Z,14.00
2022-08-17T22:55:39.175Z,13.07
2022-08-17T22:58:26.109Z,11.00
2022-08-17T23:00:58.667Z,7.40
2022-08-17T23:03:30.192Z,11.65
2022-08-17T23:06:12.016Z,8.45
2022-08-17T23:08:49.003Z,12.05
2022-08-17T23:11:19.177Z,9.98
2022-08-17T23:14:06.100Z,10.95
2022-08-17T23:16:42.473Z,5.72
2022-08-17T23:19:12.535Z,9.60
2022-08-17T23:21:42.691Z,5.57
2022-08-17T23:24:13.931Z,6.78
2022-08-17T23:26:43.732Z,9.90
2022-08-17T23:29:13.549Z,9.35
2022-08-17T23:31:46.138Z,9.75
2022-08-17T23:34:18.578Z,10.60
2022-08-17T23:36:52.448Z,10.88
2022-08-17T23:39:24.719Z,9.13
2022-08-17T23:41:58.422Z,12.00
2022-08-17T23:44:28.905Z,8.65
2022-08-17T23:47:04.749Z,9.27
2022-08-17T23:49:36.207Z,10.13
2022-08-17T23:52:10.070Z,8.32
2022-08-17T23:54:43.872Z,9.25
2022-08-17T23:57:14.912Z,12.20
2022-08-17T23:59:44.819Z,12.30
